Time;durP1;ratioP1;P1;durP2;ratioP2;P2;SDS_P1;SDS_P2;PMS_P1;PMS_P2;Temp;Humidity;BMP_temperature;BMP_pressure;BME280_temperature;BME280_humidity;BME280_pressure;Samples;Min_cycle;Max_cycle;Signal;HPM_P1;HPM_P2
2023/05/21 00:01:42;;;;;;;14.75;12.07;;;;;;;13.46;87.96;100586.69;5052447;28;20114;-68
2023/05/21 00:04:46;;;;;;;15.95;12.57;;;;;;;13.41;88.21;100580.88;5040576;28;20519;-69
2023/05/21 00:07:52;;;;;;;14.13;12.27;;;;;;;13.41;88.50;100586.16;5052607;28;20095;-69
2023/05/21 00:10:55;;;;;;;14.05;12.60;;;;;;;13.38;88.49;100579.28;5052561;28;20044;-69
2023/05/21 00:13:58;;;;;;;14.90;13.02;;;;;;;13.41;88.36;100580.88;5052936;28;20459;-69
2023/05/21 00:17:02;;;;;;;13.45;11.98;;;;;;;13.37;88.71;100579.38;5052382;28;20060;-69
2023/05/21 00:20:07;;;;;;;13.73;12.35;;;;;;;13.39;88.67;100578.34;5052426;28;20048;-68
2023/05/21 00:23:10;;;;;;;12.57;11.13;;;;;;;13.36;88.66;100567.19;5052326;28;20040;-69
2023/05/21 00:26:14;;;;;;;15.82;13.00;;;;;;;13.29;88.60;100568.53;5052304;28;20044;-69
2023/05/21 00:29:18;;;;;;;14.80;12.63;;;;;;;13.34;88.13;100563.84;5052671;28;20056;-69
2023/05/21 00:32:21;;;;;;;;;;;;;;;13.23;88.86;100557.44;5040479;28;20575;-69
2023/05/21 00:35:24;;;;;;;14.23;12.20;;;;;;;13.15;89.34;100554.44;5052233;28;19934;-69
2023/05/21 00:38:27;;;;;;;12.38;11.18;;;;;;;13.24;88.78;100561.78;5052223;28;20420;-69
2023/05/21 00:41:31;;;;;;;13.75;12.20;;;;;;;13.24;88.60;100559.16;5039981;28;20519;-69
2023/05/21 00:44:34;;;;;;;13.00;11.65;;;;;;;13.11;88.84;100563.44;5052277;28;20416;-69
2023/05/21 00:47:37;;;;;;;15.07;12.98;;;;;;;13.08;89.07;100555.78;5052381;28;20515;-69
2023/05/21 00:50:41;;;;;;;14.27;12.48;;;;;;;12.97;89.66;100553.81;5052026;28;20049;-69
2023/05/21 00:53:45;;;;;;;14.75;13.20;;;;;;;13.01;89.68;100551.81;5052149;28;20099;-69
2023/05/21 00:56:50;;;;;;;17.98;12.60;;;;;;;12.91;89.58;100543.69;5052359;28;20463;-69
2023/05/21 00:59:53;;;;;;;16.77;13.13;;;;;;;12.92;90.33;100544.53;5052019;28;20075;-69
2023/05/21 01:02:56;;;;;;;14.32;12.88;;;;;;;12.93;89.85;100539.19;5053277;28;20182;-69
2023/05/21 01:06:00;;;;;;;14.48;12.98;;;;;;;13.01;89.46;100528.19;5043431;28;20044;-69
2023/05/21 01:09:06;;;;;;;15.02;13.52;;;;;;;13.03;89.47;100534.22;5055792;28;20064;-68
2023/05/21 01:12:11;;;;;;;14.98;13.38;;;;;;;12.99;89.59;100536.19;5043677;28;20527;-68
2023/05/21 01:15:14;;;;;;;12.88;11.57;;;;;;;12.87;90.33;100541.34;5055738;28;20044;-68
2023/05/21 01:18:18;;;;;;;15.02;13.43;;;;;;;12.81;90.82;100539.94;5055453;28;20515;-69
2023/05/21 01:21:24;;;;;;;13.52;12.13;;;;;;;12.88;90.69;100537.78;5043248;28;20089;-69
2023/05/21 01:24:27;;;;;;;13.25;11.75;;;;;;;12.95;89.77;100531.22;5043157;28;20048;-69
2023/05/21 01:27:30;;;;;;;14.18;12.68;;;;;;;12.90;89.92;100528.03;5055685;28;20039;-69
2023/05/21 01:30:36;;;;;;;16.75;13.05;;;;;;;12.88;90.42;100529.91;5043024;28;20048;-69
2023/05/21 01:33:47;;;;;;;12.85;11.55;;;;;;;12.93;90.12;100531.31;5055602;28;20121;-69
2023/05/21 01:36:58;;;;;;;14.05;12.55;;;;;;;12.92;90.14;100528.78;5042879;28;20044;-68
2023/05/21 01:40:15;;;;;;;14.65;12.07;;;;;;;12.79;91.14;100526.94;5055248;28;20052;-69
2023/05/21 01:43:19;;;;;;;18.75;12.65;;;;;;;12.82;90.88;100530.28;5043023;28;20120;-69
2023/05/21 01:46:26;;;;;;;13.50;12.18;;;;;;;12.82;90.71;100527.66;5055225;28;20168;-70
2023/05/21 01:49:30;;;;;;;15.35;13.30;;;;;;;12.84;90.60;100533.66;5055272;28;20136;-69
2023/05/21 01:52:33;;;;;;;14.23;12.73;;;;;;;12.77;91.05;100528.78;5042873;28;20051;-69
2023/05/21 01:55:40;;;;;;;14.65;13.25;;;;;;;12.74;91.05;100521.09;5042878;28;20055;-69
2023/05/21 01:58:44;;;;;;;13.57;12.18;;;;;;;12.69;91.41;100519.69;5042658;28;20048;-69
2023/05/21 02:01:47;;;;;;;13.68;12.27;;;;;;;12.68;91.35;100518.03;5042312;28;20183;-69
2023/05/21 02:04:50;;;;;;;;;;;;;;;12.63;91.56;100520.91;5055356;28;20105;-69
2023/05/21 02:07:53;;;;;;;12.35;11.10;;;;;;;12.69;91.20;100520.53;5054986;28;19919;-69
2023/05/21 02:10:56;;;;;;;13.35;11.48;;;;;;;12.64;91.55;100516.53;5054742;28;20043;-69
2023/05/21 02:13:59;;;;;;;;;;;;;;;12.65;91.27;100519.03;5054061;28;20094;-69
2023/05/21 02:17:03;;;;;;;13.30;11.90;;;;;;;12.59;91.61;100519.41;5054594;28;19924;-68
2023/05/21 02:20:10;;;;;;;15.80;12.10;;;;;;;12.52;91.83;100515.47;5042353;28;20047;-68
2023/05/21 02:23:13;;;;;;;14.93;11.90;;;;;;;12.57;92.06;100513.41;5042059;28;20063;-68
2023/05/21 02:26:17;;;;;;;15.13;13.02;;;;;;;12.54;92.30;100511.00;5042099;28;20478;-68
2023/05/21 02:29:20;;;;;;;18.52;13.13;;;;;;;12.50;92.34;100507.69;5054473;28;20159;-69
2023/05/21 02:32:23;;;;;;;16.85;12.70;;;;;;;12.56;91.91;100499.47;5054426;28;20467;-68
2023/05/21 02:35:27;;;;;;;14.02;12.30;;;;;;;12.60;91.31;100501.91;5054554;28;20079;-68
2023/05/21 02:38:31;;;;;;;13.63;12.23;;;;;;;12.61;91.64;100500.97;5054235;28;20471;-68
2023/05/21 02:41:34;;;;;;;13.20;11.75;;;;;;;12.47;92.07;100502.63;5041927;28;20039;-68
2023/05/21 02:44:38;;;;;;;14.57;12.90;;;;;;;12.49;92.01;100500.78;5041661;28;20106;-68
2023/05/21 02:47:41;;;;;;;12.80;11.57;;;;;;;12.55;92.09;100507.44;5041824;28;20539;-68
2023/05/21 02:50:44;;;;;;;13.60;11.95;;;;;;;12.52;92.34;100502.38;5041725;28;20095;-68
2023/05/21 02:53:48;;;;;;;13.43;12.02;;;;;;;12.52;92.08;100505.84;5041724;28;20416;-69
2023/05/21 02:56:51;;;;;;;13.73;11.50;;;;;;;12.48;92.22;100496.47;5041452;28;20103;-68
2023/05/21 02:59:54;;;;;;;15.05;12.85;;;;;;;12.52;92.30;100502.38;5041391;28;20094;-69
2023/05/21 03:02:57;;;;;;;;;;;;;;;12.53;92.27;100504.03;5041822;28;20060;-68
2023/05/21 03:06:00;;;;;;;15.43;11.40;;;;;;;12.56;92.24;100503.88;5053820;28;19919;-68
2023/05/21 03:09:04;;;;;;;15.23;12.95;;;;;;;12.47;92.51;100505.25;5041403;28;20262;-68
2023/05/21 03:12:09;;;;;;;12.90;11.18;;;;;;;12.48;92.75;100500.88;5053534;28;20139;-69
2023/05/21 03:15:15;;;;;;;14.10;12.60;;;;;;;12.48;92.72;100509.59;5041273;28;20048;-69
2023/05/21 03:18:18;;;;;;;16.20;12.00;;;;;;;12.48;92.49;100496.47;5041188;28;20431;-69
2023/05/21 03:21:21;;;;;;;15.98;11.43;;;;;;;12.59;92.15;100498.44;5041087;28;20063;-68
2023/05/21 03:24:25;;;;;;;12.95;11.65;;;;;;;12.48;92.14;100500.88;5053499;28;20044;-69
2023/05/21 03:27:28;;;;;;;14.73;12.38;;;;;;;12.49;92.33;100500.78;5040866;28;20555;-69
2023/05/21 03:30:31;;;;;;;14.65;12.80;;;;;;;12.51;92.25;100495.44;5041207;28;20056;-69
2023/05/21 03:33:58;;;;;;;14.60;12.40;;;;;;;12.45;92.75;100501.91;5040872;28;20048;-69
2023/05/21 03:37:05;;;;;;;17.58;12.70;;;;;;;12.37;93.68;100498.03;5040858;28;20107;-69
2023/05/21 03:40:09;;;;;;;13.52;12.13;;;;;;;12.38;93.17;100489.22;5040801;28;20075;-69
2023/05/21 03:43:13;;;;;;;17.83;14.43;;;;;;;12.45;93.08;100495.81;5040997;28;20047;-69
2023/05/21 03:46:16;;;;;;;16.05;12.25;;;;;;;12.44;93.31;100494.94;5053159;28;20106;-69
2023/05/21 03:49:23;;;;;;;13.82;12.02;;;;;;;12.45;93.04;100498.44;5053264;28;20051;-68
2023/05/21 03:52:29;;;;;;;14.43;11.63;;;;;;;12.50;92.83;100493.75;5040849;28;20124;-68
2023/05/21 03:55:32;;;;;;;13.52;12.05;;;;;;;12.46;93.05;100498.34;5040488;28;20060;-69
2023/05/21 03:58:36;;;;;;;;;;;;;;;12.44;93.15;100496.72;5040853;28;20099;-69
2023/05/21 04:01:39;;;;;;;12.40;11.23;;;;;;;12.42;93.55;100496.00;5052607;28;20015;-69
2023/05/21 04:04:44;;;;;;;14.48;12.23;;;;;;;12.45;93.23;100498.44;5040417;28;20408;-69
2023/05/21 04:07:47;;;;;;;13.05;11.75;;;;;;;12.41;93.66;100495.16;5040391;28;20094;-69
2023/05/21 04:10:50;;;;;;;12.88;11.57;;;;;;;12.46;93.27;100503.56;5040352;28;20043;-69
2023/05/21 04:13:53;;;;;;;13.30;12.02;;;;;;;12.50;92.99;100491.13;5040248;28;20043;-69
2023/05/21 04:17:34;;;;;;;14.55;13.05;;;;;;;12.46;93.31;100500.97;5040182;28;20099;-69
2023/05/21 04:20:38;;;;;;;14.27;11.60;;;;;;;12.55;92.94;100495.16;5040424;28;20047;-69
2023/05/21 04:23:41;;;;;;;13.27;11.88;;;;;;;12.54;93.06;100497.88;5040238;28;20078;-69
2023/05/21 04:26:54;;;;;;;15.52;12.13;;;;;;;12.59;92.89;100498.44;5040216;28;20047;-69
2023/05/21 04:29:57;;;;;;;14.57;12.23;;;;;;;12.52;93.11;100511.06;5052604;28;20424;-69
2023/05/21 04:33:01;;;;;;;13.43;12.02;;;;;;;12.48;93.45;100506.13;5038465;28;20460;-69
2023/05/21 04:36:05;;;;;;;13.27;11.90;;;;;;;12.56;93.62;100514.34;5052400;28;20043;-69
2023/05/21 04:39:09;;;;;;;12.93;11.60;;;;;;;12.56;93.43;100509.09;5055840;28;20134;-69
2023/05/21 04:42:12;;;;;;;14.57;11.82;;;;;;;12.55;93.69;100513.50;5044033;28;20405;-69
2023/05/21 04:45:18;;;;;;;13.02;11.05;;;;;;;12.54;93.75;100506.59;5056618;28;20044;-69
2023/05/21 04:48:25;;;;;;;13.52;12.13;;;;;;;12.57;93.58;100510.78;5044087;28;20145;-69
2023/05/21 04:51:32;;;;;;;14.63;12.90;;;;;;;12.48;94.24;100514.00;5043940;28;20044;-69
2023/05/21 04:54:37;;;;;;;13.15;11.75;;;;;;;12.59;94.00;100516.78;5044117;28;20471;-69
2023/05/21 04:57:40;;;;;;;15.27;11.55;;;;;;;12.67;93.66;100516.34;5043822;28;20512;-69
2023/05/21 05:00:49;;;;;;;14.35;11.52;;;;;;;12.68;93.66;100515.41;5043598;28;20048;-70
2023/05/21 05:03:53;;;;;;;13.43;12.13;;;;;;;12.64;93.43;100512.13;5043806;28;20047;-69
2023/05/21 05:06:56;;;;;;;13.70;12.23;;;;;;;12.63;93.93;100513.03;5056085;28;20155;-69
2023/05/21 05:09:59;;;;;;;14.50;12.32;;;;;;;12.64;94.11;100522.63;5043533;28;20107;-69
2023/05/21 05:13:02;;;;;;;16.67;12.52;;;;;;;12.68;94.04;100521.47;5043708;28;20121;-69
2023/05/21 05:16:06;;;;;;;16.60;12.60;;;;;;;12.77;94.17;100523.53;5043631;28;20455;-69
2023/05/21 05:19:10;;;;;;;19.90;13.10;;;;;;;12.78;93.60;100514.72;5043714;28;20072;-69
2023/05/21 05:22:13;;;;;;;;;;;;;;;12.98;93.03;100512.66;5044213;28;20048;-68
2023/05/21 05:25:18;;;;;;;15.00;13.07;;;;;;;13.02;92.80;100508.91;5043310;28;20379;-69
2023/05/21 05:28:21;;;;;;;15.65;12.48;;;;;;;13.07;92.77;100514.69;5055633;28;20094;-69
2023/05/21 05:31:25;;;;;;;15.13;11.48;;;;;;;13.17;92.29;100505.28;5043194;28;20055;-69
2023/05/21 05:34:29;;;;;;;15.98;14.40;;;;;;;13.08;92.96;100511.16;5031815;28;20417;-69
2023/05/21 05:37:32;;;;;;;14.82;13.38;;;;;;;13.21;93.00;100506.81;5042961;28;20531;-69
2023/05/21 05:40:35;;;;;;;15.45;13.82;;;;;;;13.15;93.33;100507.19;5043137;28;20040;-69
2023/05/21 05:43:39;;;;;;;14.00;11.90;;;;;;;13.19;93.54;100503.44;5055550;28;20051;-68
2023/05/21 05:46:42;;;;;;;14.40;12.90;;;;;;;13.29;93.26;100498.47;5042875;28;20473;-69
2023/05/21 05:49:46;;;;;;;14.77;13.30;;;;;;;13.40;93.00;100510.91;5042853;28;20056;-69
2023/05/21 05:52:50;;;;;;;16.38;13.73;;;;;;;13.45;93.12;100508.81;5042863;28;20139;-68
2023/05/21 05:55:53;;;;;;;14.13;12.73;;;;;;;13.52;93.02;100496.97;5043106;28;20048;-69
2023/05/21 05:58:57;;;;;;;13.95;12.55;;;;;;;13.59;92.63;100510.56;5042824;28;20094;-69
2023/05/21 06:02:01;;;;;;;15.20;12.55;;;;;;;13.72;91.97;100501.78;5032807;28;20472;-69
2023/05/21 06:05:05;;;;;;;13.02;11.73;;;;;;;13.89;90.69;100505.09;5022841;28;20073;-69
2023/05/21 06:08:08;;;;;;;14.43;12.93;;;;;;;13.89;90.95;100503.28;5022695;28;20045;-69
2023/05/21 06:11:15;;;;;;;13.85;12.48;;;;;;;13.90;90.95;100504.13;5035059;28;20072;-69
2023/05/21 06:14:19;;;;;;;14.82;13.23;;;;;;;14.01;90.47;100509.53;5022675;28;20048;-70
2023/05/21 06:17:22;;;;;;;;;;;;;;;14.13;90.28;100505.22;5023030;28;20095;-69
2023/05/21 06:20:26;;;;;;;14.73;12.55;;;;;;;14.28;89.05;100511.22;5022464;28;19920;-71
2023/05/21 06:23:31;;;;;;;13.20;11.73;;;;;;;14.37;88.44;100505.34;5022560;28;20519;-68
2023/05/21 06:26:38;;;;;;;17.77;12.93;;;;;;;14.38;89.43;100499.97;5022504;28;20111;-70
2023/05/21 06:29:42;;;;;;;14.98;13.45;;;;;;;14.41;88.98;100496.28;5022777;28;20134;-71
2023/05/21 06:32:45;;;;;;;15.65;12.48;;;;;;;14.42;89.02;100500.59;5034468;28;20080;-71
2023/05/21 06:35:49;;;;;;;13.07;11.73;;;;;;;14.53;88.72;100492.84;5022517;28;20087;-70
2023/05/21 06:38:52;;;;;;;17.30;12.45;;;;;;;14.64;87.50;100498.22;5022237;28;20060;-71
2023/05/21 06:41:56;;;;;;;16.42;12.82;;;;;;;14.74;86.43;100498.44;5034428;28;20052;-71
2023/05/21 06:45:21;;;;;;;13.07;11.82;;;;;;;14.81;86.03;100485.69;5022442;28;20048;-70
2023/05/21 06:48:28;;;;;;;18.77;12.00;;;;;;;14.91;85.80;100494.59;5022097;28;20052;-71
2023/05/21 06:51:31;;;;;;;15.20;13.65;;;;;;;15.01;85.23;100498.25;5022141;28;20099;-71
2023/05/21 06:54:35;;;;;;;14.88;11.60;;;;;;;15.02;85.86;100489.41;5021963;28;20048;-72
2023/05/21 06:57:38;;;;;;;14.70;12.00;;;;;;;15.04;86.54;100497.19;5022027;28;20672;-70
2023/05/21 07:00:41;;;;;;;13.40;12.00;;;;;;;15.07;86.11;100503.09;5020897;28;20052;-68
2023/05/21 07:03:45;;;;;;;12.60;11.40;;;;;;;15.20;85.78;100492.50;5021628;28;20056;-70
2023/05/21 07:06:48;;;;;;;13.13;11.82;;;;;;;15.25;85.76;100493.03;5021675;28;20417;-69
2023/05/21 07:09:51;;;;;;;15.13;11.90;;;;;;;15.34;85.29;100496.78;5021567;28;20040;-70
2023/05/21 07:13:01;;;;;;;16.88;11.75;;;;;;;15.29;85.54;100491.00;5021447;28;20176;-69
2023/05/21 07:16:05;;;;;;;14.60;11.77;;;;;;;15.44;84.99;100492.50;5021699;28;20068;-70
2023/05/21 07:19:08;;;;;;;13.38;11.35;;;;;;;15.44;nan;100489.88;5021251;28;20063;-71
2023/05/21 07:22:12;;;;;;;14.73;12.10;;;;;;;15.48;84.70;100496.63;5021369;28;20064;-72
2023/05/21 07:25:15;;;;;;;13.15;11.43;;;;;;;15.57;84.30;100498.59;5021289;28;20044;-72
2023/05/21 07:28:19;;;;;;;17.90;11.95;;;;;;;15.66;83.79;100497.03;5021213;28;20510;-71
2023/05/21 07:31:22;;;;;;;14.43;11.77;;;;;;;15.72;84.02;100490.53;5021144;28;20596;-73
2023/05/21 07:34:28;;;;;;;13.35;11.98;;;;;;;15.69;83.42;100493.38;5021268;28;20471;-71
2023/05/21 07:37:32;;;;;;;11.40;10.15;;;;;;;15.69;82.48;100488.94;5020951;28;20067;-70
2023/05/21 07:40:35;;;;;;;15.48;12.18;;;;;;;15.77;81.91;100485.75;5020752;28;20115;-70
2023/05/21 07:43:39;;;;;;;13.32;11.93;;;;;;;15.87;81.49;100486.75;5019449;28;20472;-70
2023/05/21 07:46:42;;;;;;;14.65;12.15;;;;;;;15.92;81.18;100484.63;5032750;28;20103;-70
2023/05/21 07:49:47;;;;;;;13.75;11.00;;;;;;;15.99;80.58;100487.63;5020337;28;20453;-70
2023/05/21 07:52:50;;;;;;;14.25;12.75;;;;;;;15.97;80.11;100482.44;5020441;28;20060;-70
2023/05/21 07:55:55;;;;;;;14.00;11.35;;;;;;;16.16;80.01;100486.34;5020602;28;20056;-71
2023/05/21 07:59:01;;;;;;;14.07;11.95;;;;;;;16.32;79.03;100478.09;5032793;28;20045;-70
2023/05/21 08:02:06;;;;;;;14.27;11.90;;;;;;;16.55;79.00;100477.13;5020516;28;20131;-72
2023/05/21 08:05:15;;;;;;;21.50;13.63;;;;;;;16.69;78.29;100482.19;5032880;28;20481;-71
2023/05/21 08:08:20;;;;;;;14.57;11.93;;;;;;;16.83;77.25;100472.38;5020616;28;20068;-71
2023/05/21 08:11:26;;;;;;;15.65;12.50;;;;;;;16.95;77.04;100474.03;5020574;28;20408;-71
2023/05/21 08:14:33;;;;;;;17.13;13.48;;;;;;;17.00;76.89;100465.72;5020461;28;20043;-71
2023/05/21 08:17:37;;;;;;;13.90;12.40;;;;;;;17.07;76.51;100466.91;5020705;28;20408;-71
2023/05/21 08:20:41;;;;;;;13.43;12.02;;;;;;;17.24;75.72;100463.78;5033957;28;20051;-71
2023/05/21 08:23:45;;;;;;;17.98;13.57;;;;;;;17.29;75.06;100466.84;5039864;28;20059;-71
2023/05/21 08:26:49;;;;;;;13.57;12.13;;;;;;;17.40;75.74;100456.25;5051990;28;20052;-71
2023/05/21 08:29:52;;;;;;;13.82;11.15;;;;;;;17.59;74.43;100452.09;5039582;28;20129;-70
2023/05/21 08:32:56;;;;;;;12.88;11.48;;;;;;;17.78;75.35;100454.94;5039908;28;20048;-71
2023/05/21 08:36:00;;;;;;;15.80;12.85;;;;;;;17.93;74.53;100449.31;5039281;28;20055;-71
2023/05/21 08:39:08;;;;;;;15.45;13.13;;;;;;;17.91;73.42;100443.31;5039818;28;20134;-72
2023/05/21 08:42:38;;;;;;;12.43;11.15;;;;;;;18.05;73.07;100448.28;5051722;28;20097;-72
2023/05/21 08:45:53;;;;;;;12.77;11.48;;;;;;;18.22;73.66;100454.75;5039777;28;20537;-70
2023/05/21 08:49:00;;;;;;;14.95;11.98;;;;;;;18.32;72.03;100443.28;5039855;28;20098;-72
2023/05/21 08:52:04;;;;;;;13.30;11.70;;;;;;;18.35;72.39;100440.38;5052363;28;20452;-72
2023/05/21 08:55:09;;;;;;;12.50;11.02;;;;;;;18.55;73.21;100440.44;5039776;28;20063;-71
2023/05/21 08:58:14;;;;;;;13.73;11.88;;;;;;;18.54;71.85;100436.97;5039658;28;20048;-71
2023/05/21 09:01:19;;;;;;;12.23;10.98;;;;;;;18.65;71.97;100440.47;5039245;28;20459;-80
2023/05/21 09:04:26;;;;;;;14.02;10.52;;;;;;;18.79;72.62;100433.03;5039659;28;20052;-74
2023/05/21 09:07:41;;;;;;;12.10;10.80;;;;;;;18.93;72.52;100429.16;5039370;28;20652;-73
2023/05/21 09:11:17;;;;;;;12.98;11.68;;;;;;;18.96;72.99;100420.94;5033878;28;20052;-73
2023/05/21 09:14:27;;;;;;;11.77;10.55;;;;;;;18.98;72.71;100415.50;5039483;28;20555;-74
2023/05/21 09:17:47;;;;;;;13.68;12.27;;;;;;;19.21;73.00;100422.22;5039594;28;20532;-72
2023/05/21 09:21:28;;;;;;;13.07;10.00;;;;;;;19.36;71.19;100414.69;5021020;28;20454;-73
2023/05/21 09:24:50;;;;;;;14.20;10.65;;;;;;;19.51;70.59;100407.16;5036842;28;20059;-76
2023/05/21 09:27:55;;;;;;;11.95;10.18;;;;;;;19.72;70.40;100402.56;5043209;28;20063;-72
2023/05/21 09:31:02;;;;;;;12.18;11.07;;;;;;;19.74;70.12;100408.53;5043358;28;20179;-72
2023/05/21 09:34:05;;;;;;;19.88;11.40;;;;;;;19.92;70.20;100415.78;5055434;28;20067;-73
2023/05/21 09:37:09;;;;;;;11.63;10.48;;;;;;;20.12;68.79;100412.09;5042968;28;20094;-74
2023/05/21 09:40:16;;;;;;;12.65;10.70;;;;;;;20.01;67.78;100409.63;5043124;28;20048;-74
2023/05/21 09:43:21;;;;;;;13.15;10.70;;;;;;;20.07;66.41;100406.41;5043002;28;20098;-72
2023/05/21 09:46:25;;;;;;;13.93;10.27;;;;;;;20.40;66.98;100405.00;5055251;28;20433;-71
2023/05/21 09:49:29;;;;;;;11.77;10.40;;;;;;;20.29;65.38;100397.22;5042854;28;20044;-70
2023/05/21 09:52:35;;;;;;;11.43;10.23;;;;;;;19.93;65.38;100401.53;5042385;28;20091;-71
2023/05/21 09:55:38;;;;;;;12.45;9.95;;;;;;;20.18;66.15;100395.59;5043045;28;20060;-71
2023/05/21 09:58:42;;;;;;;15.52;10.05;;;;;;;20.35;66.35;100395.78;5054545;28;20044;-71
2023/05/21 10:01:46;;;;;;;12.73;9.60;;;;;;;20.54;65.83;100390.41;5049050;28;20043;-70
2023/05/21 10:04:50;;;;;;;12.13;10.40;;;;;;;20.59;65.46;100395.31;5051688;28;20190;-71
2023/05/21 10:08:03;;;;;;;11.90;9.05;;;;;;;20.66;64.64;100383.09;5053239;28;20503;-81
2023/05/21 10:11:06;;;;;;;11.32;9.38;;;;;;;20.67;64.85;100374.97;5050599;28;20122;-75
2023/05/21 10:14:25;;;;;;;12.57;9.85;;;;;;;20.70;65.76;100373.00;5053847;28;20333;-83
2023/05/21 10:17:29;;;;;;;11.00;9.82;;;;;;;20.97;64.90;100365.00;5052895;28;20044;-77
2023/05/21 10:20:33;;;;;;;11.82;9.00;;;;;;;20.99;63.61;100368.31;5054520;28;20048;-76
2023/05/21 10:23:39;;;;;;;10.65;9.65;;;;;;;21.06;65.26;100366.75;5054546;28;20048;-78
2023/05/21 10:26:43;;;;;;;11.07;9.52;;;;;;;21.13;65.52;100365.16;5054484;28;20044;-79
2023/05/21 10:29:49;;;;;;;11.45;10.18;;;;;;;21.24;64.62;100356.09;5054549;28;20446;-76
2023/05/21 10:32:54;;;;;;;11.13;9.13;;;;;;;21.32;64.14;100358.00;5029397;28;20118;-75
2023/05/21 10:35:59;;;;;;;11.77;9.68;;;;;;;21.35;64.13;100353.25;5052478;28;20102;-76
2023/05/21 10:39:03;;;;;;;10.27;9.00;;;;;;;21.42;61.77;100348.13;5054326;28;20044;-77
2023/05/21 10:42:17;;;;;;;11.48;8.80;;;;;;;21.58;61.64;100332.28;5053984;28;20040;-70
2023/05/21 10:45:56;;;;;;;11.18;8.45;;;;;;;21.57;60.52;100333.28;5053291;28;20451;-77
2023/05/21 10:49:08;;;;;;;10.43;8.85;;;;;;;21.65;61.02;100336.97;5054186;28;20090;-75
2023/05/21 10:52:26;;;;;;;13.10;9.03;;;;;;;21.86;61.41;100331.28;5054535;28;20097;-79
2023/05/21 10:56:03;;;;;;;9.95;8.95;;;;;;;21.98;60.75;100325.50;5054308;28;20051;-78
2023/05/21 10:59:27;;;;;;;11.27;9.55;;;;;;;22.12;59.73;100328.59;5053572;28;20826;-75
2023/05/21 11:02:31;;;;;;;11.05;9.65;;;;;;;22.24;59.43;100327.34;5053331;28;20059;-76
2023/05/21 11:06:01;;;;;;;10.10;8.57;;;;;;;22.22;58.72;100332.81;5053701;28;20082;-83
2023/05/21 11:09:14;;;;;;;10.20;8.65;;;;;;;22.38;58.10;100321.41;5053804;28;20086;-77
2023/05/21 11:12:21;;;;;;;11.23;7.95;;;;;;;22.45;58.16;100319.75;5041605;28;20056;-71
2023/05/21 11:15:24;;;;;;;9.25;8.02;;;;;;;22.48;58.09;100330.09;5053951;28;20040;-75
2023/05/21 11:18:34;;;;;;;9.85;8.30;;;;;;;22.54;57.49;100322.44;5040892;28;20087;-66
2023/05/21 11:21:39;;;;;;;8.85;7.95;;;;;;;22.49;57.69;100321.13;5053324;28;20527;-79
2023/05/21 11:24:43;;;;;;;9.38;8.32;;;;;;;22.48;57.32;100311.44;5053460;28;20047;-83
2023/05/21 11:27:46;;;;;;;10.20;8.93;;;;;;;22.52;58.21;100310.09;5053318;28;20060;-81
2023/05/21 11:31:39;;;;;;;11.85;8.35;;;;;;;22.43;57.75;100311.09;5041429;28;20047;-71
2023/05/21 11:34:45;;;;;;;9.32;7.80;;;;;;;22.25;56.87;100315.69;5053230;28;20094;-70
2023/05/21 11:37:52;;;;;;;10.50;8.25;;;;;;;22.30;57.37;100310.69;5053015;28;20128;-70
2023/05/21 11:41:02;;;;;;;10.25;8.25;;;;;;;22.26;56.23;100309.38;5053258;28;20048;-71
2023/05/21 11:44:07;;;;;;;11.18;8.52;;;;;;;22.36;57.59;100304.72;5053069;28;20083;-71
2023/05/21 11:47:16;;;;;;;9.82;8.77;;;;;;;22.31;57.52;100307.06;5052853;28;20458;-71
2023/05/21 11:50:19;;;;;;;8.57;7.70;;;;;;;22.26;58.19;100317.34;5052829;28;20480;-71
2023/05/21 11:53:24;;;;;;;9.35;7.93;;;;;;;22.34;57.57;100317.41;5052989;28;20127;-73
2023/05/21 11:56:30;;;;;;;9.43;7.90;;;;;;;22.43;57.42;100313.78;5052929;28;20052;-74
2023/05/21 11:59:35;;;;;;;14.07;8.02;;;;;;;22.56;55.63;100315.09;5052647;28;20098;-82
2023/05/21 12:02:43;;;;;;;9.32;8.15;;;;;;;22.59;57.01;100309.44;5052901;28;20079;-80
2023/05/21 12:05:47;;;;;;;9.98;8.98;;;;;;;22.69;55.16;100310.16;5052629;28;20055;-73
2023/05/21 12:08:56;;;;;;;15.20;9.48;;;;;;;22.75;57.13;100305.00;5051262;28;20573;-78
2023/05/21 12:12:01;;;;;;;13.27;9.05;;;;;;;22.85;54.88;100310.19;5048352;28;20102;-76
2023/05/21 12:15:05;;;;;;;14.05;9.80;;;;;;;22.81;54.94;100308.00;5052510;28;20070;-83
2023/05/21 12:18:10;;;;;;;10.35;8.98;;;;;;;22.83;55.29;100308.69;5052215;28;20079;-79
2023/05/21 12:21:14;;;;;;;12.40;8.77;;;;;;;22.93;55.66;100312.88;5051925;28;20565;-78
2023/05/21 12:24:17;;;;;;;9.95;9.05;;;;;;;23.11;55.63;100312.72;5052514;28;20086;-82
2023/05/21 12:27:21;;;;;;;11.25;9.45;;;;;;;23.19;55.61;100307.38;5052458;28;20062;-80
2023/05/21 12:30:25;;;;;;;12.77;8.70;;;;;;;23.21;53.89;100307.22;5052380;28;20091;-79
2023/05/21 12:33:35;;;;;;;9.52;8.55;;;;;;;23.47;53.24;100300.84;5052246;28;20052;-78
2023/05/21 12:36:38;;;;;;;9.77;8.52;;;;;;;23.73;54.17;100308.66;5040311;28;20072;-79
2023/05/21 12:39:46;;;;;;;9.13;8.23;;;;;;;23.81;52.74;100309.50;5052512;28;20044;-82
2023/05/21 12:42:50;;;;;;;10.00;9.00;;;;;;;24.05;51.05;100303.22;5052378;28;20182;-81
2023/05/21 12:45:54;;;;;;;9.88;8.32;;;;;;;24.21;52.04;100302.31;5051015;28;20132;-79
2023/05/21 12:48:57;;;;;;;9.85;8.55;;;;;;;24.32;52.99;100296.59;5051035;28;20110;-78
2023/05/21 12:52:02;;;;;;;8.20;7.35;;;;;;;24.25;51.52;100282.28;5051737;28;20135;-78
2023/05/21 12:55:05;;;;;;;8.77;7.60;;;;;;;24.42;50.69;100290.22;5051754;28;20051;-78
2023/05/21 12:58:12;;;;;;;10.82;8.70;;;;;;;24.47;50.01;100291.34;5039152;28;20496;-77
2023/05/21 13:01:15;;;;;;;10.35;7.68;;;;;;;24.68;50.52;100287.22;5015513;28;20115;-78
2023/05/21 13:04:20;;;;;;;11.85;8.32;;;;;;;25.05;50.52;100281.09;5019407;28;20045;-83
2023/05/21 13:07:25;;;;;;;8.18;7.38;;;;;;;25.17;49.84;100273.47;5051615;28;20036;-74
2023/05/21 13:10:28;;;;;;;11.52;7.88;;;;;;;25.16;48.75;100282.53;5055544;28;20121;-66
2023/05/21 13:13:31;;;;;;;10.15;9.05;;;;;;;25.20;49.02;100271.28;5055533;28;20051;-65
2023/05/21 13:16:34;;;;;;;9.27;7.78;;;;;;;25.13;49.34;100273.00;5055589;28;20570;-69
2023/05/21 13:19:38;;;;;;;8.68;7.78;;;;;;;25.01;48.81;100269.91;5055689;28;20136;-67
2023/05/21 13:22:45;;;;;;;8.98;7.82;;;;;;;25.19;49.60;100269.63;5054545;28;20052;-71
2023/05/21 13:25:48;;;;;;;9.13;8.23;;;;;;;25.15;48.12;100262.16;5054599;28;20040;-69
2023/05/21 13:28:51;;;;;;;9.68;7.65;;;;;;;25.45;48.72;100258.47;5055574;28;20125;-69
2023/05/21 13:31:55;;;;;;;9.25;8.45;;;;;;;25.83;47.77;100260.28;5055585;28;20040;-70
2023/05/21 13:34:58;;;;;;;9.68;8.43;;;;;;;25.85;47.68;100258.25;5055537;28;20134;-70
2023/05/21 13:38:01;;;;;;;10.55;7.78;;;;;;;26.07;46.75;100251.94;5055365;28;20128;-70
2023/05/21 13:41:05;;;;;;;11.07;8.40;;;;;;;25.97;48.09;100248.69;5055699;28;20575;-70
2023/05/21 13:44:08;;;;;;;8.88;7.95;;;;;;;26.21;47.07;100255.59;5055538;28;20089;-70
2023/05/21 13:47:13;;;;;;;9.50;7.65;;;;;;;26.16;47.09;100250.81;5053648;28;20075;-70
2023/05/21 13:50:17;;;;;;;8.70;7.85;;;;;;;26.50;45.85;100243.16;5048482;28;20074;-70
2023/05/21 13:53:20;;;;;;;19.15;8.85;;;;;;;26.18;47.32;100240.72;5049934;28;20087;-70
2023/05/21 13:56:24;;;;;;;8.38;7.45;;;;;;;26.24;47.15;100241.00;5051268;28;20397;-70
2023/05/21 13:59:28;;;;;;;8.75;7.95;;;;;;;26.60;46.71;100238.31;5052003;28;20119;-70
2023/05/21 14:02:32;;;;;;;11.57;6.82;;;;;;;27.15;44.71;100239.41;5036396;28;20052;-70
2023/05/21 14:05:36;;;;;;;8.70;7.80;;;;;;;26.99;44.14;100239.66;5028298;28;20048;-70
2023/05/21 14:08:41;;;;;;;8.40;7.63;;;;;;;27.59;44.47;100236.41;5027018;28;20511;-70
2023/05/21 14:11:48;;;;;;;8.75;7.85;;;;;;;28.13;43.14;100229.44;5016495;28;20076;-70